Time,TemperatureF,DewpointF,PressureIn,WindDirection,WindDirectionDegrees,WindSpeedMPH,WindSpeedGustMPH,Humidity,HourlyPrecipIn,Conditions,Clouds,dailyrainin,SoftwareType,DateUTC
2013-03-21 00:01:00,37.0,29.0,29.71,SW,214,14.0,22.0,73,0.00,,,0.24,,2013-03-21 07:01:00,
2013-03-21 00:12:00,37.0,29.0,29.71,SW,214,14.0,22.0,73,0.00,,,0.24,,2013-03-21 07:12:00,
2013-03-21 00:21:00,36.0,29.0,29.72,SW,217,17.0,24.0,74,0.00,,,0.24,,2013-03-21 07:21:00,
2013-03-21 00:32:00,36.0,29.0,29.73,SSW,208,14.0,25.0,76,0.00,,,0.24,,2013-03-21 07:32:00,
2013-03-21 00:41:00,36.0,29.0,29.73,SSW,208,14.0,25.0,76,0.00,,,0.24,,2013-03-21 07:41:00,
2013-03-21 00:52:00,35.0,29.0,29.74,SW,218,13.0,21.0,78,0.00,,,0.24,,2013-03-21 07:52:00,
2013-03-21 01:01:00,34.0,28.0,29.75,SW,220,15.0,18.0,79,0.00,,,0.24,,2013-03-21 08:01:00,
2013-03-21 01:12:00,34.0,28.0,29.75,SW,227,15.0,25.0,79,0.00,,,0.24,,2013-03-21 08:12:00,
2013-03-21 01:22:00,34.0,28.0,29.75,SW,227,15.0,25.0,79,0.00,,,0.24,,2013-03-21 08:22:00,
2013-03-21 01:32:00,33.0,28.0,29.75,SW,219,16.0,22.0,80,0.00,,,0.23,,2013-03-21 08:32:00,
2013-03-21 01:42:00,33.0,28.0,29.75,SW,219,16.0,22.0,80,0.00,,,0.23,,2013-03-21 08:42:00,
2013-03-21 01:52:00,33.0,28.0,29.75,SW,220,17.0,23.0,81,0.00,,,0.23,,2013-03-21 08:52:00,
2013-03-21 02:01:00,33.0,28.0,29.75,SSW,212,17.0,26.0,80,0.00,,,0.23,,2013-03-21 09:01:00,
2013-03-21 02:11:00,33.0,28.0,29.75,SSW,212,17.0,26.0,80,0.00,,,0.23,,2013-03-21 09:11:00,
2013-03-21 02:21:00,33.0,26.0,29.76,SW,217,16.0,25.0,76,0.00,,,0.23,,2013-03-21 09:21:00,
2013-03-21 02:33:00,33.0,25.0,29.76,SSW,212,13.0,26.0,73,0.00,,,0.18,,2013-03-21 09:33:00,
2013-03-21 02:43:00,33.0,25.0,29.76,SSW,212,13.0,26.0,73,0.00,,,0.18,,2013-03-21 09:43:00,
2013-03-21 02:53:00,33.0,25.0,29.76,SSW,211,15.0,20.0,72,0.00,,,0.18,,2013-03-21 09:53:00,
2013-03-21 03:02:00,32.0,24.0,29.76,SW,214,18.0,27.0,71,0.00,,,0.18,,2013-03-21 10:02:00,
2013-03-21 03:12:00,32.0,24.0,29.76,SW,214,18.0,27.0,71,0.00,,,0.18,,2013-03-21 10:12:00,
2013-03-21 03:22:00,31.0,24.0,29.76,SSW,210,18.0,26.0,75,0.00,,,0.18,,2013-03-21 10:22:00,
2013-03-21 03:32:00,31.0,25.0,29.77,SSW,211,14.0,21.0,77,0.00,,,0.16,,2013-03-21 10:32:00,
2013-03-21 03:42:00,31.0,25.0,29.77,SSW,211,14.0,21.0,77,0.00,,,0.16,,2013-03-21 10:42:00,
2013-03-21 03:53:00,31.0,25.0,29.78,SSW,209,9.0,19.0,77,0.00,,,0.16,,2013-03-21 10:53:00,
2013-03-21 04:02:00,32.0,24.0,29.79,SW,217,5.0,12.0,73,0.00,,,0.16,,2013-03-21 11:02:00,
2013-03-21 04:12:00,32.0,24.0,29.79,SW,217,5.0,12.0,73,0.00,,,0.16,,2013-03-21 11:12:00,
2013-03-21 04:22:00,31.0,23.0,29.80,SW,232,11.0,20.0,73,0.00,,,0.16,,2013-03-21 11:22:00,
2013-03-21 04:32:00,31.0,23.0,29.81,SW,215,11.0,18.0,73,0.00,,,0.14,,2013-03-21 11:32:00,
2013-03-21 04:42:00,31.0,23.0,29.81,SW,215,11.0,18.0,73,0.00,,,0.14,,2013-03-21 11:42:00,
2013-03-21 04:52:00,31.0,23.0,29.82,SSW,203,13.0,17.0,73,0.00,,,0.14,,2013-03-21 11:52:00,
2013-03-21 05:01:00,32.0,24.0,29.82,SW,229,14.0,16.0,72,0.00,,,0.14,,2013-03-21 12:01:00,
2013-03-21 05:11:00,32.0,24.0,29.82,SW,229,14.0,16.0,72,0.00,,,0.14,,2013-03-21 12:11:00,
2013-03-21 05:21:00,32.0,24.0,29.83,WSW,244,13.0,21.0,72,0.00,,,0.14,,2013-03-21 12:21:00,
2013-03-21 05:32:00,32.0,24.0,29.83,SW,219,14.0,20.0,72,0.00,,,0.14,,2013-03-21 12:32:00,
2013-03-21 05:42:00,32.0,24.0,29.83,SW,219,14.0,20.0,72,0.00,,,0.14,,2013-03-21 12:42:00,
2013-03-21 05:52:00,32.0,24.0,29.84,SW,220,13.0,21.0,72,0.00,,,0.14,,2013-03-21 12:52:00,
2013-03-21 06:02:00,32.0,23.0,29.85,SW,221,17.0,23.0,70,0.00,,,0.14,,2013-03-21 13:02:00,
2013-03-21 06:12:00,32.0,23.0,29.85,SW,221,17.0,23.0,70,0.00,,,0.14,,2013-03-21 13:12:00,
2013-03-21 06:22:00,32.0,24.0,29.85,SW,231,13.0,21.0,71,0.00,,,0.14,,2013-03-21 13:22:00,
2013-03-21 06:31:00,32.0,23.0,29.86,SW,217,14.0,21.0,70,0.00,,,0.14,,2013-03-21 13:31:00,
2013-03-21 06:42:00,32.0,23.0,29.86,SW,217,14.0,21.0,70,0.00,,,0.14,,2013-03-21 13:42:00,
2013-03-21 06:52:00,31.0,23.0,29.87,SW,222,13.0,20.0,71,0.00,,,0.14,,2013-03-21 13:52:00,
2013-03-21 07:02:00,31.0,23.0,29.88,WSW,242,14.0,20.0,72,0.00,,,0.14,,2013-03-21 14:02:00,
2013-03-21 07:11:00,31.0,23.0,29.88,SSW,210,15.0,23.0,73,0.00,,,0.14,,2013-03-21 14:11:00,
2013-03-21 07:21:00,31.0,23.0,29.88,SSW,210,15.0,23.0,73,0.00,,,0.14,,2013-03-21 14:21:00,
2013-03-21 07:32:00,30.0,23.0,29.89,SW,218,14.0,23.0,75,0.00,,,0.14,,2013-03-21 14:32:00,
2013-03-21 07:42:00,30.0,23.0,29.89,SW,218,14.0,23.0,75,0.00,,,0.14,,2013-03-21 14:42:00,
2013-03-21 07:52:00,30.0,23.0,29.89,SW,236,14.0,26.0,75,0.00,,,0.14,,2013-03-21 14:52:00,
2013-03-21 08:02:00,30.0,23.0,29.89,SW,234,14.0,25.0,75,0.00,,,0.14,,2013-03-21 15:02:00,
2013-03-21 08:12:00,30.0,23.0,29.89,SW,234,14.0,25.0,75,0.00,,,0.14,,2013-03-21 15:12:00,
2013-03-21 08:22:00,31.0,24.0,29.90,WSW,239,12.0,23.0,76,0.00,,,0.14,,2013-03-21 15:22:00,
2013-03-21 08:32:00,31.0,24.0,29.91,SSW,197,13.0,23.0,75,0.00,,,0.14,,2013-03-21 15:32:00,
2013-03-21 08:42:00,31.0,24.0,29.91,SSW,197,13.0,23.0,75,0.00,,,0.14,,2013-03-21 15:42:00,
2013-03-21 08:53:00,31.0,24.0,29.91,SSW,197,13.0,23.0,75,0.00,,,0.14,,2013-03-21 15:53:00,
2013-03-21 09:03:00,31.0,24.0,29.91,SSW,208,14.0,23.0,75,0.00,,,0.14,,2013-03-21 16:03:00,
2013-03-21 09:12:00,31.0,24.0,29.91,SSW,208,14.0,23.0,75,0.00,,,0.14,,2013-03-21 16:12:00,
2013-03-21 09:22:00,32.0,24.0,29.91,SW,215,13.0,22.0,73,0.00,,,0.14,,2013-03-21 16:22:00,
2013-03-21 09:33:00,33.0,25.0,29.92,SSW,212,15.0,23.0,72,0.00,,,0.14,,2013-03-21 16:33:00,
2013-03-21 09:42:00,33.0,25.0,29.92,SSW,212,15.0,23.0,72,0.00,,,0.14,,2013-03-21 16:42:00,
2013-03-21 09:53:00,33.0,25.0,29.92,SW,229,14.0,23.0,72,0.00,,,0.14,,2013-03-21 16:53:00,
2013-03-21 10:01:00,33.0,25.0,29.93,SW,235,16.0,22.0,72,0.00,,,0.14,,2013-03-21 17:01:00,
2013-03-21 10:11:00,33.0,25.0,29.93,SW,235,16.0,22.0,72,0.00,,,0.14,,2013-03-21 17:11:00,
2013-03-21 10:22:00,33.0,24.0,29.94,SW,225,13.0,19.0,70,0.00,,,0.14,,2013-03-21 17:22:00,
2013-03-21 10:32:00,34.0,25.0,29.94,SW,229,13.0,20.0,68,0.00,,,0.12,,2013-03-21 17:32:00,
2013-03-21 10:42:00,34.0,25.0,29.94,SW,229,13.0,20.0,68,0.00,,,0.12,,2013-03-21 17:42:00,
2013-03-21 10:53:00,35.0,25.0,29.94,WSW,244,13.0,22.0,67,0.00,,,0.12,,2013-03-21 17:53:00,
2013-03-21 11:01:00,35.0,25.0,29.95,SW,214,15.0,23.0,66,0.00,,,0.12,,2013-03-21 18:01:00,
2013-03-21 11:11:00,35.0,25.0,29.95,SW,214,15.0,23.0,66,0.00,,,0.12,,2013-03-21 18:11:00,
2013-03-21 11:22:00,38.0,27.0,29.95,SSW,197,16.0,22.0,64,0.00,,,0.12,,2013-03-21 18:22:00,
2013-03-21 11:32:00,37.0,24.0,29.95,SSW,209,10.0,21.0,59,0.00,,,0.10,,2013-03-21 18:32:00,
2013-03-21 11:42:00,37.0,24.0,29.95,SSW,209,10.0,21.0,59,0.00,,,0.10,,2013-03-21 18:42:00,
2013-03-21 11:52:00,38.0,25.0,29.95,South,189,6.0,20.0,60,0.00,,,0.10,,2013-03-21 18:52:00,
2013-03-21 12:01:00,40.0,27.0,29.95,SSW,211,18.0,23.0,59,0.00,,,0.10,,2013-03-21 19:01:00,
2013-03-21 12:11:00,40.0,27.0,29.95,SSW,211,18.0,23.0,59,0.00,,,0.10,,2013-03-21 19:11:00,
2013-03-21 12:22:00,41.0,25.0,29.95,WNW,282,11.0,20.0,53,0.00,,,0.10,,2013-03-21 19:22:00,
2013-03-21 12:31:00,39.0,21.0,29.95,WNW,287,4.0,15.0,48,0.00,,,0.07,,2013-03-21 19:31:00,
2013-03-21 12:42:00,39.0,21.0,29.95,WNW,287,4.0,15.0,48,0.00,,,0.07,,2013-03-21 19:42:00,
2013-03-21 12:52:00,38.0,22.0,29.96,NNW,343,3.0,9.0,51,0.00,,,0.07,,2013-03-21 19:52:00,
2013-03-21 13:02:00,38.0,22.0,29.95,WSW,257,1.0,7.0,53,0.00,,,0.07,,2013-03-21 20:02:00,
2013-03-21 13:12:00,38.0,22.0,29.95,WSW,257,1.0,7.0,53,0.00,,,0.07,,2013-03-21 20:12:00,
2013-03-21 13:22:00,40.0,20.0,29.94,West,269,8.0,14.0,45,0.00,,,0.07,,2013-03-21 20:22:00,
2013-03-21 13:32:00,41.0,24.0,29.94,NE,50,4.0,12.0,50,0.00,,,0.00,,2013-03-21 20:32:00,
2013-03-21 13:42:00,41.0,24.0,29.94,NE,50,4.0,12.0,50,0.00,,,0.00,,2013-03-21 20:42:00,
2013-03-21 13:53:00,40.0,23.0,29.95,East,81,2.0,6.0,51,0.00,,,0.00,,2013-03-21 20:53:00,
2013-03-21 14:01:00,39.0,22.0,29.94,SW,215,4.0,8.0,51,0.00,,,0.00,,2013-03-21 21:01:00,
2013-03-21 14:12:00,39.0,22.0,29.94,SW,215,4.0,8.0,51,0.00,,,0.00,,2013-03-21 21:12:00,
2013-03-21 14:21:00,41.0,21.0,29.93,ESE,106,3.0,15.0,44,0.00,,,0.00,,2013-03-21 21:21:00,
2013-03-21 14:32:00,40.0,23.0,29.94,SW,214,3.0,15.0,51,0.00,,,0.00,,2013-03-21 21:32:00,
2013-03-21 14:42:00,40.0,23.0,29.94,SW,214,3.0,15.0,51,0.00,,,0.00,,2013-03-21 21:42:00,
2013-03-21 14:53:00,38.0,24.0,29.94,SSW,209,3.0,9.0,57,0.00,,,0.00,,2013-03-21 21:53:00,
2013-03-21 15:02:00,39.0,22.0,29.93,West,268,3.0,10.0,50,0.00,,,0.00,,2013-03-21 22:02:00,
2013-03-21 15:12:00,39.0,22.0,29.93,West,268,3.0,10.0,50,0.00,,,0.00,,2013-03-21 22:12:00,
2013-03-21 15:22:00,39.0,20.0,29.93,West,273,2.0,12.0,46,0.00,,,0.00,,2013-03-21 22:22:00,
2013-03-21 15:33:00,42.0,22.0,29.93,SSW,213,9.0,15.0,44,0.00,,,0.00,,2013-03-21 22:33:00,
2013-03-21 15:42:00,42.0,22.0,29.93,SSW,213,9.0,15.0,44,0.00,,,0.00,,2013-03-21 22:42:00,
2013-03-21 15:52:00,40.0,23.0,29.95,SW,215,5.0,17.0,50,0.00,,,0.00,,2013-03-21 22:52:00,
2013-03-21 16:02:00,40.0,24.0,29.94,SW,221,6.0,14.0,53,0.00,,,0.00,,2013-03-21 23:02:00,
2013-03-21 16:12:00,40.0,24.0,29.94,SW,221,6.0,14.0,53,0.00,,,0.00,,2013-03-21 23:12:00,
2013-03-21 16:21:00,42.0,25.0,29.93,NE,56,1.0,7.0,50,0.00,,,0.00,,2013-03-21 23:21:00,
2013-03-21 16:32:00,42.0,26.0,29.92,NE,36,7.0,12.0,53,0.00,,,0.00,,2013-03-21 23:32:00,
2013-03-21 16:53:00,41.0,24.0,29.93,SSW,201,5.0,10.0,51,0.00,,,0.00,,2013-03-21 23:53:00,
2013-03-21 17:01:00,40.0,21.0,29.94,ENE,73,1.0,7.0,47,0.00,,,0.00,,2013-03-22 00:01:00,
2013-03-21 17:11:00,40.0,21.0,29.94,ENE,73,1.0,7.0,47,0.00,,,0.00,,2013-03-22 00:11:00,
2013-03-21 17:22:00,38.0,24.0,29.94,NE,50,2.0,8.0,57,0.00,,,0.00,,2013-03-22 00:22:00,
2013-03-21 17:31:00,39.0,24.0,29.93,NW,309,2.0,7.0,54,0.00,,,0.00,,2013-03-22 00:31:00,
2013-03-21 17:42:00,39.0,24.0,29.93,NW,309,2.0,7.0,54,0.00,,,0.00,,2013-03-22 00:42:00,
2013-03-21 17:52:00,40.0,23.0,29.94,NNW,334,2.0,7.0,51,0.00,,,0.00,,2013-03-22 00:52:00,
2013-03-21 18:01:00,39.0,22.0,29.94,West,273,2.0,10.0,51,0.00,,,0.00,,2013-03-22 01:01:00,
2013-03-21 18:11:00,39.0,22.0,29.94,West,273,2.0,10.0,51,0.00,,,0.00,,2013-03-22 01:11:00,
2013-03-21 18:21:00,37.0,21.0,29.94,SW,225,2.0,11.0,52,0.00,,,0.00,,2013-03-22 01:21:00,
2013-03-21 18:31:00,37.0,22.0,29.95,WSW,250,1.0,4.0,55,0.00,,,0.00,,2013-03-22 01:31:00,
2013-03-21 18:42:00,37.0,22.0,29.95,WSW,250,1.0,4.0,55,0.00,,,0.00,,2013-03-22 01:42:00,
2013-03-21 18:53:00,37.0,22.0,29.95,North,11,2.0,5.0,55,0.00,,,0.00,,2013-03-22 01:53:00,
2013-03-21 19:02:00,36.0,23.0,29.95,WSW,255,0.0,3.0,59,0.00,,,0.00,,2013-03-22 02:02:00,
2013-03-21 19:12:00,36.0,23.0,29.95,WSW,255,0.0,3.0,59,0.00,,,0.00,,2013-03-22 02:12:00,
2013-03-21 19:22:00,35.0,23.0,29.95,WNW,298,0.0,1.0,62,0.00,,,0.00,,2013-03-22 02:22:00,
2013-03-21 19:31:00,35.0,24.0,29.96,West,268,0.0,2.0,64,0.00,,,0.00,,2013-03-22 02:31:00,
2013-03-21 19:42:00,35.0,24.0,29.96,West,268,0.0,2.0,64,0.00,,,0.00,,2013-03-22 02:42:00,
2013-03-21 19:52:00,35.0,24.0,29.96,West,268,0.0,2.0,64,0.00,,,0.00,,2013-03-22 02:52:00,
2013-03-21 20:01:00,34.0,23.0,29.96,NW,313,0.0,1.0,64,0.00,,,0.00,,2013-03-22 03:01:00,
2013-03-21 20:12:00,34.0,23.0,29.96,NW,313,0.0,1.0,64,0.00,,,0.00,,2013-03-22 03:12:00,
2013-03-21 20:21:00,33.0,24.0,29.96,NW,312,0.0,1.0,69,0.00,,,0.00,,2013-03-22 03:21:00,
2013-03-21 20:33:00,34.0,24.0,29.97,East,80,2.0,5.0,66,0.00,,,0.00,,2013-03-22 03:33:00,
2013-03-21 20:42:00,34.0,24.0,29.97,East,80,2.0,5.0,66,0.00,,,0.00,,2013-03-22 03:42:00,
2013-03-21 20:53:00,35.0,24.0,29.98,NNW,336,0.0,4.0,65,0.00,,,0.00,,2013-03-22 03:53:00,
2013-03-21 21:03:00,34.0,24.0,29.97,NNE,23,2.0,7.0,66,0.00,,,0.00,,2013-03-22 04:03:00,
2013-03-21 21:12:00,34.0,24.0,29.97,NNE,23,2.0,7.0,66,0.00,,,0.00,,2013-03-22 04:12:00,
2013-03-21 21:22:00,34.0,25.0,29.98,WSW,244,1.0,3.0,69,0.00,,,0.00,,2013-03-22 04:22:00,
2013-03-21 21:32:00,34.0,25.0,29.98,SW,231,2.0,5.0,68,0.00,,,0.00,,2013-03-22 04:32:00,
2013-03-21 21:42:00,34.0,25.0,29.98,SW,231,2.0,5.0,68,0.00,,,0.00,,2013-03-22 04:42:00,
2013-03-21 21:52:00,33.0,25.0,29.98,SW,236,2.0,3.0,72,0.00,,,0.00,,2013-03-22 04:52:00,
2013-03-21 22:02:00,33.0,24.0,29.98,West,269,0.0,4.0,70,0.00,,,0.00,,2013-03-22 05:02:00,
2013-03-21 22:12:00,33.0,24.0,29.98,West,269,0.0,4.0,70,0.00,,,0.00,,2013-03-22 05:12:00,
2013-03-21 22:21:00,33.0,24.0,29.99,NW,304,0.0,2.0,68,0.00,,,0.00,,2013-03-22 05:21:00,
2013-03-21 22:32:00,33.0,25.0,29.99,WSW,248,5.0,14.0,71,0.00,,,0.00,,2013-03-22 05:32:00,
2013-03-21 22:42:00,33.0,25.0,29.99,WSW,248,5.0,14.0,71,0.00,,,0.00,,2013-03-22 05:42:00,
2013-03-21 22:52:00,33.0,26.0,29.99,NNE,19,1.0,5.0,74,0.00,,,0.00,,2013-03-22 05:52:00,
2013-03-21 23:02:00,33.0,25.0,29.99,NNW,327,0.0,3.0,71,0.00,,,0.00,,2013-03-22 06:02:00,
2013-03-21 23:12:00,33.0,25.0,29.99,NNW,327,0.0,3.0,71,0.00,,,0.00,,2013-03-22 06:12:00,
2013-03-21 23:22:00,33.0,25.0,29.99,West,274,2.0,5.0,71,0.00,,,0.00,,2013-03-22 06:22:00,
2013-03-21 23:32:00,32.0,24.0,29.99,West,275,0.0,3.0,71,0.00,,,0.00,,2013-03-22 06:32:00,
2013-03-21 23:42:00,32.0,24.0,29.99,West,275,0.0,3.0,71,0.00,,,0.00,,2013-03-22 06:42:00,
2013-03-21 23:52:00,30.0,23.0,29.99,West,269,0.0,2.0,76,0.00,,,0.00,,2013-03-22 06:52:00,